Time;durP1;ratioP1;P1;durP2;ratioP2;P2;SDS_P1;SDS_P2;PMS_P1;PMS_P2;Temp;Humidity;BMP_temperature;BMP_pressure;BME280_temperature;BME280_humidity;BME280_pressure;Samples;Min_cycle;Max_cycle;Signal;HPM_P1;HPM_P2
2022/02/10 00:04:09;;;;;;;2.25;1.08;;;;;;;11.45;49.89;101764.09;2083009;28;20040;-75
2022/02/10 00:17:11;;;;;;;3.97;1.20;;;;;;;11.43;49.67;101726.13;2089564;28;20056;-75
2022/02/10 00:18:28;;;;;;;6.82;1.25;;;;;;;11.44;49.97;101716.44;2095820;28;20036;-75
2022/02/10 00:20:54;;;;;;;2.25;0.85;;;;;;;11.41;50.09;101696.13;2090232;28;20079;-74
2022/02/10 00:22:05;;;;;;;3.25;1.00;;;;;;;11.43;49.86;101709.34;2088093;28;20456;-76
2022/02/10 00:23:22;;;;;;;;;;;;;;;11.44;49.71;101705.88;2092943;28;20045;-75
2022/02/10 00:35:16;;;;;;;2.92;0.82;;;;;;;11.36;50.05;101681.84;2087704;28;20041;-73
2022/02/10 00:36:23;;;;;;;4.68;1.25;;;;;;;11.36;50.07;101696.81;2081290;28;20486;-74
2022/02/10 00:37:36;;;;;;;6.72;0.98;;;;;;;11.36;49.94;101691.53;2076644;28;20053;-74
2022/02/10 00:38:44;;;;;;;5.07;1.23;;;;;;;11.37;49.79;101685.41;2089948;28;20112;-73
2022/02/10 00:41:12;;;;;;;4.43;1.00;;;;;;;11.34;49.37;101687.97;2075045;28;20045;-74
2022/02/10 00:42:13;;;;;;;1.65;0.88;;;;;;;11.34;49.36;101682.69;2096625;28;20040;-74
2022/02/10 00:43:16;;;;;;;7.95;1.38;;;;;;;11.34;49.32;101701.19;2095866;28;20056;-73
2022/02/10 00:44:19;;;;;;;3.00;1.20;;;;;;;11.34;48.78;101687.97;2096751;28;20079;-73
2022/02/10 00:45:25;;;;;;;3.88;1.73;;;;;;;11.33;48.60;101691.47;2088268;28;20037;-73
2022/02/10 00:46:26;;;;;;;6.20;1.67;;;;;;;11.31;48.64;101693.16;2088049;28;20068;-73
2022/02/10 00:47:32;;;;;;;3.65;1.05;;;;;;;11.29;48.60;101689.59;2088093;28;20037;-73
2022/02/10 00:48:33;;;;;;;4.22;1.27;;;;;;;11.29;48.62;101679.03;2080758;28;20068;-74
2022/02/10 00:49:36;;;;;;;;;;;;;;;11.29;48.47;101692.25;2089243;28;20114;-74
2022/02/10 00:50:39;;;;;;;8.90;1.77;;;;;;;11.27;48.50;101701.88;2088241;28;19921;-74
2022/02/10 00:51:42;;;;;;;2.75;1.05;;;;;;;11.26;48.58;101687.75;2080483;28;20051;-73
2022/02/10 00:52:44;;;;;;;8.38;2.22;;;;;;;11.27;48.23;101693.94;2096717;28;20112;-73
2022/02/10 00:53:47;;;;;;;4.63;1.00;;;;;;;11.27;48.24;101699.22;2088377;28;20041;-74
2022/02/10 00:54:49;;;;;;;5.35;1.08;;;;;;;11.28;48.07;101680.78;2080399;28;20113;-74
2022/02/10 00:55:52;;;;;;;5.35;1.05;;;;;;;11.29;48.15;101697.53;2088220;28;20433;-73
2022/02/10 00:56:56;;;;;;;11.77;1.50;;;;;;;11.32;48.39;101700.25;2088131;28;20044;-74
2022/02/10 00:58:03;;;;;;;5.70;1.25;;;;;;;11.35;48.74;101708.28;2079080;28;20045;-74
2022/02/10 00:59:12;;;;;;;8.05;1.67;;;;;;;11.35;48.70;101713.56;2080719;28;20038;-74
2022/02/10 01:07:13;;;;;;;6.82;1.95;;;;;;;11.43;48.69;101726.13;2082173;28;20041;-74
2022/02/10 01:11:13;;;;;;;4.00;1.00;;;;;;;11.39;49.05;101731.28;2091567;28;20896;-75
2022/02/10 01:12:31;;;;;;;2.67;1.00;;;;;;;11.36;49.13;101732.09;2096826;28;20500;-74
2022/02/10 01:13:48;;;;;;;4.70;1.50;;;;;;;11.33;49.09;101734.66;2095848;28;20041;-73
2022/02/10 01:24:33;;;;;;;7.38;1.73;;;;;;;11.48;48.82;101750.06;2074136;28;20593;-74
2022/02/10 01:29:38;;;;;;;5.10;1.80;;;;;;;11.49;48.42;101751.81;2084964;28;20436;-74
2022/02/10 01:30:40;;;;;;;6.28;1.25;;;;;;;11.49;48.14;101746.53;2088127;28;20580;-74
2022/02/10 01:31:45;;;;;;;4.50;1.38;;;;;;;11.52;48.14;101755.47;2071847;28;20050;-74
2022/02/10 01:32:50;;;;;;;8.77;1.98;;;;;;;11.52;48.16;101746.63;2075619;28;20520;-74
2022/02/10 01:33:53;;;;;;;9.38;1.63;;;;;;;11.53;48.17;101741.41;2095260;28;20036;-74
2022/02/10 01:34:54;;;;;;;4.38;1.17;;;;;;;11.54;48.33;101750.22;2096886;28;20040;-73
2022/02/10 01:35:56;;;;;;;;;;;;;;;11.57;48.48;101747.66;2096695;28;20111;-74
2022/02/10 01:36:58;;;;;;;4.78;1.33;;;;;;;11.55;48.75;101746.75;2096154;28;19941;-74
2022/02/10 01:38:00;;;;;;;5.85;1.50;;;;;;;11.56;48.99;101746.75;2095722;28;20102;-74
2022/02/10 01:39:03;;;;;;;3.85;1.20;;;;;;;11.58;49.01;101739.78;2096149;28;20083;-73
2022/02/10 01:40:11;;;;;;;4.32;1.42;;;;;;;11.59;48.70;101745.94;2086115;28;20064;-74
2022/02/10 01:41:58;;;;;;;4.47;1.33;;;;;;;11.59;48.81;101720.41;2080588;28;20129;-74
2022/02/10 02:03:21;;;;;;;6.63;1.65;;;;;;;11.29;48.00;101724.84;2089058;28;20099;-73
2022/02/10 02:04:25;;;;;;;8.05;1.13;;;;;;;11.25;48.21;101714.13;2074225;28;20065;-74
2022/02/10 02:05:35;;;;;;;6.28;1.15;;;;;;;11.26;48.46;101694.78;2073520;28;20034;-73
2022/02/10 02:06:43;;;;;;;5.75;1.35;;;;;;;11.26;48.52;101716.84;2086857;28;20127;-74
2022/02/10 02:07:45;;;;;;;6.85;1.25;;;;;;;11.29;48.82;101727.47;2093582;28;20070;-73
2022/02/10 02:08:48;;;;;;;5.93;1.40;;;;;;;11.30;48.86;101692.25;2091553;28;20041;-74
2022/02/10 02:09:49;;;;;;;2.47;1.17;;;;;;;11.33;48.70;101700.28;2087609;28;20060;-73
2022/02/10 02:10:51;;;;;;;;;;;;;;;11.35;48.48;101697.69;2087929;28;20045;-73
2022/02/10 02:11:55;;;;;;;8.38;1.25;;;;;;;11.35;48.39;101701.25;2087521;28;19920;-73
2022/02/10 02:12:58;;;;;;;2.15;0.60;;;;;;;11.34;48.57;101688.88;2078821;28;20408;-73
2022/02/10 02:13:59;;;;;;;4.63;1.27;;;;;;;11.38;48.70;101705.69;2079754;28;20037;-73
2022/02/10 02:15:02;;;;;;;4.78;1.35;;;;;;;11.39;48.91;101699.56;2080504;28;20516;-73
2022/02/10 02:16:04;;;;;;;4.18;1.30;;;;;;;11.41;48.87;101693.47;2082090;28;20041;-74
2022/02/10 02:17:07;;;;;;;7.50;1.40;;;;;;;11.42;48.83;101699.66;2095743;28;20135;-73
2022/02/10 02:18:10;;;;;;;3.50;1.08;;;;;;;11.44;48.78;101701.47;2096518;28;20044;-73
2022/02/10 02:19:14;;;;;;;1.65;0.82;;;;;;;11.43;48.48;101707.59;2096618;28;20067;-74
2022/02/10 02:20:15;;;;;;;5.80;1.25;;;;;;;11.42;48.18;101705.81;2095810;28;20397;-73
2022/02/10 02:21:43;;;;;;;5.53;1.13;;;;;;;11.42;47.91;101723.47;2108943;27;20401;-75
2022/02/10 02:22:46;;;;;;;7.60;1.95;;;;;;;11.42;48.16;101724.31;2111882;28;20140;-76
2022/02/10 02:23:49;;;;;;;5.78;1.50;;;;;;;11.43;47.89;101710.25;2111529;28;20407;-75
2022/02/10 02:24:50;;;;;;;5.07;0.90;;;;;;;11.44;47.78;101695.28;2106288;28;20098;-76
2022/02/10 02:25:59;;;;;;;2.78;1.25;;;;;;;11.45;47.81;101726.16;2102723;28;20400;-76
2022/02/10 02:27:04;;;;;;;8.20;1.33;;;;;;;11.45;48.07;101723.53;2095246;28;20126;-76
2022/02/10 02:28:09;;;;;;;2.90;0.90;;;;;;;11.45;48.20;101728.81;2100340;28;20048;-75
2022/02/10 02:29:13;;;;;;;2.60;1.50;;;;;;;11.46;48.40;101730.59;2110816;28;20047;-76
2022/02/10 02:30:22;;;;;;;3.42;0.80;;;;;;;11.47;48.35;101737.69;2103761;28;20111;-75
2022/02/10 02:31:29;;;;;;;3.45;1.33;;;;;;;11.44;48.31;101757.00;2111342;28;20085;-76
2022/02/10 02:32:36;;;;;;;2.83;0.65;;;;;;;11.44;48.30;101742.88;2112949;28;20042;-75
2022/02/10 02:34:08;;;;;;;4.65;1.15;;;;;;;11.44;48.22;101745.53;2099617;28;20036;-75
2022/02/10 02:35:29;;;;;;;5.97;1.42;;;;;;;11.47;48.43;101759.75;2101675;28;20089;-75
2022/02/10 02:37:01;;;;;;;3.08;1.42;;;;;;;11.45;48.13;101755.25;2097362;28;20033;-77
2022/02/10 02:38:19;;;;;;;7.07;1.52;;;;;;;11.44;47.75;101749.06;2097630;27;20457;-76
2022/02/10 03:04:52;;;;;;;6.88;1.98;;;;;;;11.52;49.19;101766.03;2114226;28;20048;-75
2022/02/10 03:06:00;;;;;;;4.82;1.23;;;;;;;11.51;49.25;101756.31;2102616;28;20044;-75
2022/02/10 03:07:08;;;;;;;4.00;1.52;;;;;;;11.51;48.82;101751.03;2106126;28;20040;-75
2022/02/10 03:08:16;;;;;;;2.70;1.17;;;;;;;11.51;48.23;101752.78;2100233;28;20029;-75
2022/02/10 03:09:24;;;;;;;5.80;1.50;;;;;;;11.51;48.04;101756.31;2106612;28;20044;-75
2022/02/10 03:11:49;;;;;;;4.03;1.25;;;;;;;11.47;48.04;101772.97;2098329;28;20094;-75
2022/02/10 03:12:50;;;;;;;3.85;1.02;;;;;;;11.45;48.26;101773.75;2103147;28;20059;-75
2022/02/10 03:13:57;;;;;;;6.53;1.20;;;;;;;11.43;48.55;101773.72;2102407;28;20445;-75
2022/02/10 03:15:01;;;;;;;5.88;1.35;;;;;;;11.40;48.94;101763.06;2106528;28;20565;-76
2022/02/10 03:16:26;;;;;;;3.55;1.23;;;;;;;11.41;48.90;101779.81;2106403;28;20089;-76
2022/02/10 03:17:52;;;;;;;3.13;0.90;;;;;;;11.43;48.82;101786.03;2102974;28;20101;-75
2022/02/10 03:19:00;;;;;;;4.50;1.35;;;;;;;11.43;49.04;101775.44;2111319;28;20076;-76
2022/02/10 03:20:15;;;;;;;4.75;1.63;;;;;;;11.44;48.88;101777.25;2100813;28;20048;-76
2022/02/10 04:13:01;;;;;;;6.97;1.40;;;;;;;11.37;48.96;101813.19;2086478;28;20167;-75
2022/02/10 04:14:12;;;;;;;4.45;1.73;;;;;;;11.38;49.31;101819.38;2088075;28;20048;-75
2022/02/10 04:15:25;;;;;;;9.13;1.92;;;;;;;11.36;49.57;101829.00;2103457;28;20074;-75
2022/02/10 04:16:32;;;;;;;7.70;2.38;;;;;;;11.35;49.91;101829.88;2109421;28;20543;-76
2022/02/10 04:17:51;;;;;;;9.15;2.30;;;;;;;11.37;49.99;101831.69;2105175;28;20044;-75
2022/02/10 04:20:39;;;;;;;8.07;2.60;;;;;;;11.40;50.52;101845.03;2103481;28;20063;-75
2022/02/10 04:21:51;;;;;;;5.43;1.67;;;;;;;11.37;50.48;101844.91;2091500;28;20382;-75
2022/02/10 04:23:06;;;;;;;7.15;1.90;;;;;;;11.40;50.16;101857.34;2096953;28;20049;-75
2022/02/10 04:24:20;;;;;;;6.03;1.50;;;;;;;11.40;50.07;101858.25;2096236;28;20051;-75
2022/02/10 04:25:40;;;;;;;8.57;2.40;;;;;;;11.40;49.72;101850.31;2102525;28;20127;-75
2022/02/10 04:26:55;;;;;;;7.63;1.23;;;;;;;11.41;49.08;101848.56;2104214;28;20094;-75
2022/02/10 04:28:11;;;;;;;13.25;1.90;;;;;;;11.38;48.81;101848.47;2102461;28;20152;-76
2022/02/10 04:30:54;;;;;;;8.80;1.55;;;;;;;11.40;48.46;101831.81;2096950;28;20511;-75
2022/02/10 04:44:56;;;;;;;7.95;1.73;;;;;;;11.35;50.50;101837.81;2095898;28;20489;-75
2022/02/10 04:56:51;;;;;;;6.07;2.00;;;;;;;11.39;51.25;101851.16;2100096;28;20036;-75
2022/02/10 04:59:29;;;;;;;7.72;2.08;;;;;;;11.39;50.34;101844.97;2095157;28;20164;-76
2022/02/10 05:00:44;;;;;;;8.48;2.58;;;;;;;11.36;49.71;101831.66;2099218;28;20048;-76
2022/02/10 05:02:04;;;;;;;7.47;1.77;;;;;;;11.35;49.78;101845.75;2087778;28;20072;-75
2022/02/10 05:03:44;;;;;;;6.32;1.45;;;;;;;11.33;49.62;101863.28;2099124;28;20048;-76
2022/02/10 05:05:20;;;;;;;6.68;2.05;;;;;;;11.30;49.73;101852.63;2090782;28;20049;-76
2022/02/10 05:18:46;;;;;;;10.38;2.40;;;;;;;11.28;50.83;101842.03;2095041;28;20512;-76
2022/02/10 05:20:10;;;;;;;7.97;2.20;;;;;;;11.23;50.27;101837.41;2091532;28;20369;-76
2022/02/10 05:21:30;;;;;;;7.05;1.90;;;;;;;11.19;49.83;101834.69;2094277;28;20451;-75
2022/02/10 05:32:14;;;;;;;10.82;2.58;;;;;;;11.25;49.75;101796.06;2096670;28;20044;-75
2022/02/10 05:33:32;;;;;;;7.22;2.20;;;;;;;11.25;50.16;101830.44;2099802;28;20044;-76
2022/02/10 05:34:39;;;;;;;11.65;2.60;;;;;;;11.24;50.44;101829.53;2087199;28;20041;-76
2022/02/10 05:35:43;;;;;;;5.45;1.90;;;;;;;11.29;50.70;101827.06;2098676;28;20040;-75
2022/02/10 05:36:47;;;;;;;10.48;2.58;;;;;;;11.34;50.93;101836.00;2112816;28;20043;-75
2022/02/10 05:37:52;;;;;;;7.72;2.05;;;;;;;11.35;51.06;101844.00;2103828;28;20036;-75
2022/02/10 05:39:05;;;;;;;9.77;1.88;;;;;;;11.36;51.16;101823.72;2096880;28;20040;-75
2022/02/10 05:40:14;;;;;;;9.73;3.00;;;;;;;11.36;50.38;101829.91;2096634;28;20048;-75
2022/02/10 05:45:44;;;;;;;4.60;1.88;;;;;;;11.29;49.66;101853.50;2065610;28;20521;-76
2022/02/10 05:47:04;;;;;;;7.18;1.80;;;;;;;11.29;49.76;101858.78;2081922;28;20041;-76
2022/02/10 05:48:33;;;;;;;5.90;1.50;;;;;;;11.30;49.80;101847.31;2089733;28;20041;-75
2022/02/10 05:50:02;;;;;;;5.47;1.50;;;;;;;11.25;49.04;101856.88;2101953;28;20039;-76
2022/02/10 05:56:36;;;;;;;10.93;4.25;;;;;;;11.44;50.06;101846.00;2089067;28;20041;-76
2022/02/10 05:57:47;;;;;;;24.13;8.80;;;;;;;11.55;50.35;101848.09;2096744;28;20039;-76
2022/02/10 05:59:18;;;;;;;8.77;2.25;;;;;;;11.69;50.09;101845.84;2088547;28;20048;-76
2022/02/10 06:01:19;;;;;;;6.80;2.20;;;;;;;11.81;48.73;101842.72;2095837;28;20488;-76
2022/02/10 06:02:33;;;;;;;7.13;2.60;;;;;;;11.82;48.03;101837.44;2094771;28;20041;-75
2022/02/10 06:51:18;;;;;;;7.03;3.40;;;;;;;11.90;50.37;101959.38;2078615;28;20197;-76
2022/02/10 06:52:26;;;;;;;6.18;2.13;;;;;;;11.87;50.39;101961.94;2082793;28;20037;-76
2022/02/10 06:53:39;;;;;;;9.27;2.13;;;;;;;11.88;50.48;101961.09;2078809;28;20033;-76
2022/02/10 06:54:52;;;;;;;11.40;2.22;;;;;;;11.90;50.42;101967.31;2080314;28;20071;-75
2022/02/10 06:56:20;;;;;;;10.15;2.10;;;;;;;11.91;50.61;101956.78;2085077;28;20095;-76
2022/02/10 06:58:10;;;;;;;10.20;2.88;;;;;;;11.93;50.54;101955.09;2083092;28;20678;-75
2022/02/10 07:03:37;;;;;;;11.48;3.13;;;;;;;12.01;50.81;101971.19;2108200;28;20040;-76
2022/02/10 07:05:02;;;;;;;9.32;3.67;;;;;;;12.04;49.55;101975.66;2094890;28;20033;-76
2022/02/10 07:06:17;;;;;;;8.02;1.92;;;;;;;12.08;49.14;101978.41;2096095;28;20157;-75
2022/02/10 07:07:39;;;;;;;9.30;2.28;;;;;;;12.09;49.04;101972.28;2102273;28;20096;-75
2022/02/10 07:13:14;;;;;;;5.45;1.63;;;;;;;12.18;48.87;101959.31;2077076;28;20041;-76
2022/02/10 07:47:10;;;;;;;10.90;2.58;;;;;;;12.43;47.64;101973.22;2079000;28;20034;-72
2022/02/10 07:48:32;;;;;;;13.27;3.72;;;;;;;12.44;48.25;101981.22;2079511;28;20084;-73
2022/02/10 07:54:03;;;;;;;8.00;2.42;;;;;;;12.45;48.45;101984.78;2077672;28;20033;-72
2022/02/10 07:56:49;;;;;;;7.68;3.03;;;;;;;12.43;48.92;101994.41;2076566;28;20037;-72
2022/02/10 07:58:09;;;;;;;7.70;2.90;;;;;;;12.52;48.98;102011.47;2084277;28;20068;-72
2022/02/10 08:01:00;;;;;;;9.98;2.25;;;;;;;12.83;48.42;102020.25;2063461;28;20052;-73
2022/02/10 08:56:23;;;;;;;7.22;2.88;;;;;;;14.63;45.14;101989.97;2067251;28;20093;-72
2022/02/10 08:57:34;;;;;;;7.95;2.50;;;;;;;14.39;45.15;101984.16;2077501;28;20076;-72
2022/02/10 08:59:01;;;;;;;6.72;2.45;;;;;;;14.29;45.52;101987.47;2073540;28;20137;-72
2022/02/10 09:00:39;;;;;;;10.38;3.15;;;;;;;14.43;45.38;101990.44;2068025;28;20124;-72
2022/02/10 09:04:36;;;;;;;9.80;3.45;;;;;;;14.67;45.67;101985.56;2080303;28;20045;-73
2022/02/10 09:05:49;;;;;;;7.07;2.75;;;;;;;14.60;46.03;101970.38;2064723;28;20034;-72
2022/02/10 09:13:46;;;;;;;8.52;2.47;;;;;;;13.95;47.12;101985.88;2081561;28;20045;-71
2022/02/10 09:15:29;;;;;;;10.15;3.47;;;;;;;13.94;47.19;101992.94;2082203;28;20054;-72
2022/02/10 09:56:10;;;;;;;25.33;11.30;;;;;;;14.39;47.52;101962.00;2072420;28;20050;-72
2022/02/10 09:57:40;;;;;;;19.17;11.32;;;;;;;14.43;47.56;101959.44;2065527;28;20075;-72
2022/02/10 10:00:21;;;;;;;13.98;4.60;;;;;;;14.30;46.28;101952.97;2065033;28;20042;-72
2022/02/10 10:01:29;;;;;;;14.93;5.05;;;;;;;14.30;46.50;101952.97;2070781;28;20120;-72
2022/02/10 10:02:36;;;;;;;10.32;3.70;;;;;;;14.38;46.11;101949.56;2064443;28;20117;-72
2022/02/10 10:03:42;;;;;;;10.05;4.65;;;;;;;14.42;45.76;101939.06;2064413;28;20058;-72
2022/02/10 10:04:57;;;;;;;11.00;4.35;;;;;;;14.57;45.60;101941.09;2073811;28;20046;-72
2022/02/10 10:06:12;;;;;;;10.32;5.38;;;;;;;14.70;45.73;101948.44;2070314;28;20117;-72
2022/02/10 10:07:26;;;;;;;13.32;5.20;;;;;;;14.80;45.85;101946.81;2066380;28;20043;-72
2022/02/10 10:08:39;;;;;;;11.15;4.85;;;;;;;14.82;46.18;101953.06;2058816;28;20051;-72
2022/02/10 10:09:49;;;;;;;12.13;3.92;;;;;;;14.78;46.54;101946.78;2067741;28;20041;-73
2022/02/10 10:11:14;;;;;;;13.27;4.68;;;;;;;14.71;46.70;101942.22;2077224;28;20096;-72
2022/02/10 10:14:11;;;;;;;11.15;3.53;;;;;;;14.50;46.34;101939.19;2061459;28;20084;-72
2022/02/10 10:19:48;;;;;;;7.57;3.78;;;;;;;14.27;47.08;101934.31;2070247;28;20165;-73
2022/02/10 10:21:03;;;;;;;9.35;5.00;;;;;;;14.24;47.43;101941.34;2075979;28;20038;-72
2022/02/10 10:22:21;;;;;;;8.15;3.22;;;;;;;14.22;47.51;101948.38;2081126;28;20041;-72
2022/02/10 10:23:40;;;;;;;8.30;4.00;;;;;;;14.18;47.25;101957.13;2076413;28;20042;-72
2022/02/10 10:25:11;;;;;;;10.90;4.30;;;;;;;14.08;46.88;101953.41;2072239;28;20575;-72
2022/02/10 10:26:31;;;;;;;8.80;2.97;;;;;;;13.99;47.15;101974.44;2059953;28;20106;-72
2022/02/10 10:44:16;;;;;;;13.95;5.47;;;;;;;13.99;47.26;101971.78;2066242;28;20049;-72
2022/02/10 10:46:38;;;;;;;9.05;2.92;;;;;;;14.27;46.93;101947.59;2039626;29;20047;-72
2022/02/10 10:50:07;;;;;;;8.70;3.10;;;;;;;14.52;47.07;101946.31;2047354;28;20051;-72
2022/02/10 10:51:25;;;;;;;11.85;3.03;;;;;;;14.55;47.07;101942.84;2068096;28;20041;-72
2022/02/10 10:53:54;;;;;;;6.72;2.38;;;;;;;14.52;47.19;101948.06;2071480;28;20429;-72
2022/02/10 10:55:16;;;;;;;8.75;2.05;;;;;;;14.66;47.31;101952.78;2072879;28;20049;-72
2022/02/10 10:56:25;;;;;;;9.48;2.55;;;;;;;14.94;47.19;101953.25;2080809;28;20045;-72
2022/02/10 10:57:30;;;;;;;5.40;1.60;;;;;;;15.20;46.75;101957.25;2071965;28;20477;-72
2022/02/10 10:58:38;;;;;;;6.68;2.03;;;;;;;15.45;46.63;101950.53;2067834;28;20162;-72
2022/02/10 11:00:07;;;;;;;5.50;1.88;;;;;;;15.66;46.08;101955.31;2076801;28;20116;-72
2022/02/10 11:07:40;;;;;;;18.63;10.60;;;;;;;15.42;45.38;101938.09;2069038;28;22624;-73
2022/02/10 11:36:50;;;;;;;8.32;3.03;;;;;;;15.56;45.87;101900.16;2066382;28;20041;-72
2022/02/10 11:38:12;;;;;;;6.65;2.15;;;;;;;15.62;46.15;101887.78;2071784;28;20118;-73
2022/02/10 11:39:34;;;;;;;7.00;2.10;;;;;;;15.74;46.36;101895.06;2071984;28;20042;-73
2022/02/10 11:41:24;;;;;;;6.05;1.63;;;;;;;15.87;46.06;101873.03;2074181;28;20038;-72
2022/02/10 11:44:01;;;;;;;7.63;2.60;;;;;;;15.62;45.74;101865.63;2071486;28;20049;-73
2022/02/10 11:47:10;;;;;;;8.70;2.42;;;;;;;15.61;45.60;101842.56;2079287;28;20049;-73
2022/02/10 12:00:59;;;;;;;;;;;;;;;15.67;46.36;101822.22;2071591;28;20119;-72
2022/02/10 12:39:56;;;;;;;10.05;1.80;;;;;;;14.26;48.42;101881.13;2076742;28;20034;-73
2022/02/10 13:48:54;;;;;;;6.00;2.28;;;;;;;14.15;49.76;101888.03;2083235;28;20129;-73
2022/02/10 14:13:12;;;;;;;6.43;2.53;;;;;;;14.05;50.29;101945.34;2071565;28;20050;-73
2022/02/10 14:14:23;;;;;;;7.30;2.72;;;;;;;14.03;50.37;101936.47;2063199;28;20517;-73
2022/02/10 14:15:34;;;;;;;8.30;2.15;;;;;;;14.04;50.51;101948.00;2065078;28;20544;-73
2022/02/10 14:16:42;;;;;;;;;;;;;;;14.03;50.82;101940.91;2068117;28;20113;-73
2022/02/10 14:17:48;;;;;;;7.93;1.92;;;;;;;14.04;50.83;101946.25;2073965;28;19929;-73
2022/02/10 14:18:56;;;;;;;10.20;2.65;;;;;;;14.08;50.90;101918.88;2064940;28;20057;-73
2022/02/10 14:19:59;;;;;;;8.32;2.20;;;;;;;14.11;51.02;101940.16;2061393;28;20508;-73
2022/02/10 14:21:08;;;;;;;10.40;2.13;;;;;;;14.17;51.27;101939.41;2075877;28;20112;-73
2022/02/10 14:22:11;;;;;;;9.20;2.10;;;;;;;14.22;51.23;101941.28;2071046;28;20080;-73
2022/02/10 14:25:39;;;;;;;7.50;2.47;;;;;;;14.28;51.18;101933.44;2073115;28;20045;-73
2022/02/10 14:26:06;;;;;;;4.40;1.70;;;;;;;14.28;50.32;101928.13;2068605;28;20072;-73
2022/02/10 14:27:12;;;;;;;4.68;1.90;;;;;;;14.32;50.17;101934.38;2059844;28;20060;-74
2022/02/10 14:28:17;;;;;;;9.63;1.92;;;;;;;14.31;50.09;101921.97;2072675;28;20045;-73
2022/02/10 14:29:24;;;;;;;8.55;1.92;;;;;;;14.33;49.24;101910.50;2070115;28;20046;-73
2022/02/10 14:30:27;;;;;;;9.52;2.47;;;;;;;14.31;49.16;101920.19;2064565;28;20073;-73
2022/02/10 14:31:30;;;;;;;8.80;2.03;;;;;;;14.29;49.01;101927.28;2065263;28;20074;-73
2022/02/10 14:32:39;;;;;;;10.75;4.15;;;;;;;14.26;49.02;101926.28;2072411;28;20049;-73
2022/02/10 14:33:45;;;;;;;9.52;3.30;;;;;;;14.21;48.94;101923.56;2078708;28;20574;-73
2022/02/10 14:34:51;;;;;;;15.98;6.10;;;;;;;14.23;48.84;101936.88;2090210;28;20587;-73
2022/02/10 14:35:58;;;;;;;15.10;6.50;;;;;;;14.24;49.17;101925.41;2078325;28;20450;-73
2022/02/10 14:37:22;;;;;;;11.70;4.95;;;;;;;14.23;49.39;101928.91;2072839;28;20095;-73
2022/02/10 14:38:47;;;;;;;13.77;5.55;;;;;;;14.21;49.77;101931.53;2065355;28;20164;-73
2022/02/10 14:40:08;;;;;;;10.90;4.65;;;;;;;14.17;50.16;101929.69;2074604;28;22138;-74
2022/02/10 14:41:52;;;;;;;14.55;3.88;;;;;;;14.12;50.16;101926.03;2080998;28;20037;-73
2022/02/10 15:54:48;;;;;;;6.47;3.33;;;;;;;13.22;53.57;101938.19;2020388;29;20394;-72
2022/02/10 16:11:00;;;;;;;8.95;4.82;;;;;;;13.22;54.71;101967.38;2036431;28;20052;-72
2022/02/10 16:17:27;;;;;;;11.13;7.90;;;;;;;13.27;55.12;101987.84;2063911;28;20530;-72
2022/02/10 16:18:41;;;;;;;12.02;6.50;;;;;;;13.26;55.10;101994.00;2065560;28;20626;-72
2022/02/10 16:19:46;;;;;;;8.88;5.15;;;;;;;13.25;55.19;101984.28;2060601;28;20069;-72
2022/02/10 16:20:56;;;;;;;10.77;6.97;;;;;;;13.26;55.22;101991.34;2057851;28;20058;-73
2022/02/10 16:22:05;;;;;;;10.52;5.13;;;;;;;13.28;55.21;101983.44;2068228;28;20117;-72
2022/02/10 16:23:15;;;;;;;13.60;5.88;;;;;;;13.28;55.33;101984.31;2064572;28;20045;-72
2022/02/10 16:24:28;;;;;;;9.63;4.18;;;;;;;13.31;55.07;101987.06;2053432;28;20047;-73
2022/02/10 16:25:38;;;;;;;14.30;8.25;;;;;;;13.34;55.01;101988.88;2051206;28;20066;-74
2022/02/10 16:26:53;;;;;;;25.45;7.57;;;;;;;13.35;55.01;101986.28;2062407;28;20042;-73
2022/02/10 16:28:08;;;;;;;14.73;7.90;;;;;;;13.35;55.12;101983.63;2064962;28;20609;-73
2022/02/10 16:29:16;;;;;;;10.07;3.53;;;;;;;13.34;55.29;101979.16;2056769;28;20052;-73
2022/02/10 16:30:20;;;;;;;9.20;3.00;;;;;;;13.31;55.33;101983.50;2062396;28;20498;-72
2022/02/10 16:31:23;;;;;;;9.80;2.38;;;;;;;13.29;54.90;101980.81;2068927;28;20046;-72
2022/02/10 16:32:27;;;;;;;8.55;2.33;;;;;;;13.29;54.43;101993.19;2065208;28;20182;-72
2022/02/10 16:33:32;;;;;;;7.88;2.70;;;;;;;13.27;54.22;101987.84;2056821;28;20109;-73
2022/02/10 16:34:38;;;;;;;9.20;2.70;;;;;;;13.26;54.05;101998.44;2066587;28;20069;-73
2022/02/10 16:35:42;;;;;;;10.48;2.97;;;;;;;13.26;53.80;101982.50;2067617;28;20046;-72
2022/02/10 16:36:45;;;;;;;7.00;2.80;;;;;;;13.23;53.46;102001.88;2061386;28;20556;-72
2022/02/10 16:37:47;;;;;;;6.00;2.05;;;;;;;13.22;53.28;101994.78;2059684;28;20549;-72
2022/02/10 16:38:50;;;;;;;8.32;1.58;;;;;;;13.23;52.94;101996.59;2058221;28;20045;-72
2022/02/10 16:39:53;;;;;;;7.50;2.60;;;;;;;13.24;52.63;101994.84;2058068;28;20046;-72
2022/02/10 16:40:55;;;;;;;7.93;2.55;;;;;;;13.22;52.52;101984.19;2062011;28;20100;-72
2022/02/10 16:41:58;;;;;;;8.77;2.65;;;;;;;13.22;52.57;101993.88;2056002;28;20042;-71
2022/02/10 16:43:00;;;;;;;8.00;2.08;;;;;;;13.21;52.75;101998.28;2048864;28;20056;-72
2022/02/10 16:44:03;;;;;;;8.73;3.15;;;;;;;13.21;52.68;101998.28;2059212;28;20579;-72
2022/02/10 16:45:06;;;;;;;13.02;3.28;;;;;;;13.19;52.75;102001.78;2060789;28;20053;-72
2022/02/10 16:46:10;;;;;;;9.73;3.30;;;;;;;13.19;52.81;102002.69;2061017;28;20110;-72
2022/02/10 16:47:14;;;;;;;7.25;2.75;;;;;;;13.16;53.00;101989.34;2064354;28;20050;-72
2022/02/10 16:48:18;;;;;;;10.95;2.90;;;;;;;13.15;53.07;101992.84;2065828;28;20410;-71
2022/02/10 16:49:22;;;;;;;8.95;2.60;;;;;;;13.11;53.15;101990.94;2065029;28;20501;-72
2022/02/10 16:50:24;;;;;;;12.70;5.35;;;;;;;13.07;52.92;101995.25;2064490;28;20053;-72
2022/02/10 16:51:27;;;;;;;12.95;5.88;;;;;;;13.06;53.17;101996.13;2068810;28;20041;-73
2022/02/10 16:52:35;;;;;;;17.55;7.55;;;;;;;13.03;53.02;101992.50;2066424;28;20038;-72
2022/02/10 16:53:42;;;;;;;15.10;7.68;;;;;;;13.05;53.12;101993.44;2060423;28;20117;-72
2022/02/10 16:54:47;;;;;;;16.23;6.20;;;;;;;13.04;53.31;101996.94;2068492;28;20046;-72
2022/02/10 16:55:56;;;;;;;25.10;10.13;;;;;;;13.04;53.21;101997.84;2066843;28;20089;-72
2022/02/10 16:57:04;;;;;;;30.55;12.85;;;;;;;13.04;53.26;101991.66;2068475;28;20493;-72
2022/02/10 16:58:17;;;;;;;14.57;5.65;;;;;;;13.03;53.14;101998.69;2071956;28;20050;-73
2022/02/10 16:59:42;;;;;;;9.13;4.07;;;;;;;13.03;53.21;101990.75;2063471;28;20039;-72
2022/02/10 17:02:42;;;;;;;9.00;3.28;;;;;;;13.04;53.32;101999.59;2063787;28;20049;-72
2022/02/10 17:04:18;;;;;;;8.90;3.22;;;;;;;13.04;53.25;101989.91;2064157;28;20043;-73
2022/02/10 17:05:34;;;;;;;11.82;3.53;;;;;;;13.06;53.32;102001.41;2062859;28;20521;-72
2022/02/10 17:17:38;;;;;;;8.88;2.90;;;;;;;13.18;54.12;102003.53;2058082;28;20117;-73
2022/02/10 17:20:24;;;;;;;10.30;3.17;;;;;;;13.23;54.12;102003.63;2047350;28;20053;-72
2022/02/10 17:21:34;;;;;;;13.75;3.22;;;;;;;13.24;54.35;102009.00;2058929;28;20130;-72
2022/02/10 17:25:22;;;;;;;9.00;3.05;;;;;;;13.25;54.57;102009.88;2064411;28;20050;-72
2022/02/10 17:26:39;;;;;;;8.48;3.25;;;;;;;13.27;54.71;102013.44;2064385;28;20031;-72
2022/02/10 17:27:43;;;;;;;8.82;3.78;;;;;;;13.29;54.74;102006.44;2063780;28;20409;-72
2022/02/10 17:28:47;;;;;;;6.97;3.30;;;;;;;13.29;54.64;102002.03;2063816;28;20469;-72
2022/02/10 17:30:23;;;;;;;7.18;3.40;;;;;;;13.32;54.85;102006.53;2063832;28;20038;-72
2022/02/10 17:33:00;;;;;;;7.68;4.13;;;;;;;13.26;55.00;102009.03;2064546;28;20078;-73
2022/02/10 17:41:47;;;;;;;5.38;3.72;;;;;;;13.14;54.62;102020.22;2064248;28;20078;-73
2022/02/10 17:43:37;;;;;;;10.43;5.97;;;;;;;13.11;54.33;102021.00;2064089;28;20091;-73
2022/02/10 17:44:49;;;;;;;8.57;4.53;;;;;;;13.11;54.27;102017.47;2063742;28;20462;-72
2022/02/10 17:46:02;;;;;;;10.88;5.68;;;;;;;13.10;53.98;102029.81;2063333;28;20038;-74
2022/02/10 17:52:25;;;;;;;7.07;3.35;;;;;;;13.07;52.68;102011.16;2064208;28;20109;-72
2022/02/10 17:53:29;;;;;;;6.22;3.58;;;;;;;13.06;52.46;102009.38;2063861;28;20554;-73
2022/02/10 17:54:34;;;;;;;8.10;4.28;;;;;;;13.06;52.70;102008.50;2063946;28;20105;-73
2022/02/10 17:55:39;;;;;;;10.18;3.72;;;;;;;13.03;52.70;102024.31;2064486;28;20045;-73